Fairfield, North Dakota
Current Conditions -  °F | °C
As of 5:56 AM on Friday 19 Dec 2014 (Local Time) from KDIK Reporting Station
Broken Clouds Broken Clouds  
Wind Chill: 24°   Ceiling: 9000
Heat Index: 30°   Visibility: 10mi
Dew Point: 23°   Wind: 6mph
Humidity: 75%   Direction: 250°WSW
Pressure: 29.89"   Gusts: NA
Location:  47.19°N, 103.23°W
Report Text: KDIK 191256Z AUTO 25005KT 10SM FEW070 BKN090 BKN120 M01/M05 A2989 RMK AO2 SLP157 T10111050
Loading
Personal Weather Stations






























Interactive Weather Map New forecast layout! Learn more

10-Day Weather Forecast

Advertisements
Track Severe Weather on mobile